Language selection

Weather shortcuts

South-central Hudson - western half: Past 24 Hour Conditions

 

Peawanuck Airport

10:00 AM CDT 21 April 2024
Disclaimer

This table is a summary of hourly weather conditions for the past 24 hours.
Please note that these observations might not always be representative of weather conditions over their associated marine area.

Date / Time
(CDT)
Wind(knots) Conditions Visibility(km) Pressure(kPa) Air tempC) Relative humidity(%) Dew pointC) Wind Chill
21 April 2024
10:00 NW 13 gusts 21 Haze 10 101.7 -17 60 -23 -28
9:00 NW 10 gusts 18 Cloudy 16 101.7 -18 61 -24 -27
8:00 NW 14 gusts 20 Partly Cloudy 16 101.6 -20 66 -24 -31
7:00 NW 9 gusts 15 Sunny 16 101.6 -20 70 -24 -30
6:00 NW 10 gusts 18 Sunny 16 101.5 -21 70 -25 -31
5:00 NW 8 gusts 15 Clear 16 101.5 -21 73 -24 -30
4:00 NW 12 gusts 18 Clear 16 101.5 -20 70 -24 -31
3:00 NW 9 gusts 16 Mostly Cloudy 15 101.5 -20 74 -23 -29
2:00 NNW 10 gusts 20 Mostly Cloudy 16 101.4 -19 71 -23 -29
1:00 NW 17 gusts 24 Cloudy 11 101.4 -18 72 -22 -30
0:00 NNW 12 gusts 22 Light Snow 16 101.4 -17 71 -21 -27
20 April 2024
23:00 NNW 10 gusts 21 Light Snow 3 101.4 -16 78 -19 -25
22:00 NNW 19 gusts 31 Light Snow 4 101.3 -15 72 -19 -26
21:00 NNW 12 gusts 22 Light Snow 16 101.2 -12 68 -16 -20
20:00 NNW 14 gusts 27 Light Snow 15 101.1 -10 72 -14 -19
19:00 NNW 17 gusts 28 Light Snow 1 101.0 -8 83 -11 -17
18:00 NW 19 gusts 29 Light Snow 2 100.8 -7 78 -10 -16
17:00 NW 17 gusts 28 Light Snow 8 100.7 -5 73 -9 -13
16:00 NW 11 gusts 24 Light Snow 6 100.5 -3 72 -7 -9
15:00 WNW 11 gusts 20 Light Snow 2 100.5 -4 80 -6 -10
14:00 WNW 13 gusts 20 Light Snow 2 100.5 -4 76 -8 -11
13:00 W 10 gusts 15 Light Snow 16 100.5 -4 41 -16 -10
12:00 WNW 11 gusts 16 Cloudy 16 100.5 -4 34 -17 -10
11:00 WNW 11 Mostly Cloudy 16 100.5 -6 44 -16 -12
10:00 WNW 13 Partly Cloudy 16 100.5 -7 55 -15 -15

Zoom-in to make a selection

Map of Hudson - Hudson Bay marine weather areas Arviat Airport Baker Lake Airport Chesterfield Inlet Airport Coral Harbour Airport Rankin Inlet Airport Sanikiluaq Airport Whale Cove Airport Kinngait (Cape Dorset Airport) Iqaluit Airport Wager Bay Kimmirut Airport Churchill Airport Fort Severn Airport Peawanuck Airport Moosonee Airport Eastmain Airport La Grande Rivière Airport Waskaganish Airport Wemindji Airport Akulivik Airport Inukjuak Airport Ivujivik Airport Kuujjuarapik Airport Puvirnituq Airport Umiujaq Airport Aupaluk Airport Kangiqsujuaq Airport Kangirsuk Airport Kangiqsualujjuaq Airport Kuujjuaq Airport Quaqtaq Airport Salluit Airport Tasiujaq Airport Cape Kakkiviak
Legend:
buoy Buoy
land station Land Station

Hudson - Hudson Bay Area

Another Region

Date modified: